Time;durP1;ratioP1;P1;durP2;ratioP2;P2;SDS_P1;SDS_P2;PMS_P1;PMS_P2;Temp;Humidity;BMP_temperature;BMP_pressure;BME280_temperature;BME280_humidity;BME280_pressure;Samples;Min_cycle;Max_cycle;Signal;HPM_P1;HPM_P2
2021/05/03 00:01:53;;;;;;;5.93;3.80;;;;;;;19.94;32.15;101579.00;5034012;28;20040;-78
2021/05/03 00:04:19;;;;;;;6.32;4.00;;;;;;;19.87;32.13;101581.56;5034147;28;20045;-79
2021/05/03 00:06:45;;;;;;;5.70;3.83;;;;;;;19.82;32.02;101573.53;5032755;28;20041;-80
2021/05/03 00:09:11;;;;;;;6.13;3.80;;;;;;;19.79;32.06;101574.22;5032196;28;20385;-79
2021/05/03 00:11:37;;;;;;;6.90;3.92;;;;;;;19.80;32.01;101570.31;5033440;28;20033;-79
2021/05/03 00:14:03;;;;;;;4.95;3.50;;;;;;;19.78;32.16;101566.28;5032476;28;20480;-79
2021/05/03 00:16:29;;;;;;;9.38;4.00;;;;;;;19.77;32.30;101564.66;5033994;28;20033;-79
2021/05/03 00:18:54;;;;;;;6.43;4.13;;;;;;;19.72;32.12;101560.16;5033839;28;20088;-79
2021/05/03 00:21:20;;;;;;;5.18;3.47;;;;;;;19.67;32.16;101554.91;5033796;28;20112;-79
2021/05/03 00:23:46;;;;;;;5.93;3.83;;;;;;;19.61;32.12;101556.31;5049286;28;20156;-79
2021/05/03 00:26:12;;;;;;;7.15;4.15;;;;;;;19.60;32.14;101551.94;5033704;28;20428;-79
2021/05/03 00:28:38;;;;;;;4.85;3.45;;;;;;;19.62;32.21;101549.59;5033745;28;20025;-79
2021/05/03 00:31:04;;;;;;;4.85;3.67;;;;;;;19.61;32.11;101543.25;5033460;28;20071;-80
2021/05/03 00:33:30;;;;;;;4.95;3.63;;;;;;;19.61;32.09;101546.03;5033595;28;20151;-91
2021/05/03 00:35:56;;;;;;;4.50;3.00;;;;;;;19.65;32.01;101543.38;5033527;28;20487;-79
2021/05/03 00:38:21;;;;;;;6.38;3.20;;;;;;;19.65;31.94;101533.09;5033532;28;20495;-79
2021/05/03 00:40:47;;;;;;;4.07;3.03;;;;;;;19.68;31.89;101535.13;5033359;28;20037;-79
2021/05/03 00:43:18;;;;;;;5.93;3.60;;;;;;;19.72;31.89;101531.63;5033505;28;20025;-79
2021/05/03 00:45:44;;;;;;;4.80;3.40;;;;;;;19.76;31.90;101525.03;5033247;28;20033;-89
2021/05/03 00:48:10;;;;;;;4.93;3.40;;;;;;;19.76;31.70;101529.78;5033254;28;20023;-81
2021/05/03 00:50:37;;;;;;;7.95;3.95;;;;;;;19.67;31.82;101521.63;5033252;28;20095;-81
2021/05/03 00:53:04;;;;;;;6.95;3.75;;;;;;;19.69;31.73;101522.06;5031675;28;20053;-79
2021/05/03 00:55:29;;;;;;;5.82;4.00;;;;;;;19.68;31.84;101526.00;5032909;28;20029;-81
2021/05/03 00:57:55;;;;;;;5.93;4.35;;;;;;;19.74;31.78;101513.50;5032401;28;20037;-79
2021/05/03 01:00:24;;;;;;;5.68;3.58;;;;;;;19.76;31.60;101513.16;5033044;28;20471;-80
2021/05/03 01:02:50;;;;;;;6.35;4.65;;;;;;;19.73;31.91;101514.66;5032878;28;20380;-80
2021/05/03 01:05:16;;;;;;;6.70;4.43;;;;;;;19.81;31.72;101505.38;5031601;28;20025;-80
2021/05/03 01:07:42;;;;;;;5.72;4.35;;;;;;;19.81;31.59;101508.16;5031644;28;20035;-80
2021/05/03 01:10:08;;;;;;;7.30;5.00;;;;;;;19.84;31.58;101493.56;5032745;28;20017;-80
2021/05/03 01:12:33;;;;;;;7.72;5.43;;;;;;;19.83;31.87;101497.50;5032898;28;20036;-80
2021/05/03 01:14:59;;;;;;;7.70;4.97;;;;;;;19.85;31.41;101497.13;5032866;28;20107;-80
2021/05/03 01:17:35;;;;;;;7.68;5.38;;;;;;;19.83;31.43;101491.94;5032695;28;20104;-79
2021/05/03 01:20:15;;;;;;;7.63;4.63;;;;;;;19.84;31.51;101490.78;5031324;28;20037;-80
2021/05/03 01:22:41;;;;;;;8.10;5.70;;;;;;;19.85;31.61;101478.53;5032947;28;20116;-80
2021/05/03 01:25:09;;;;;;;6.25;4.63;;;;;;;19.81;31.56;101472.09;5032757;28;20030;-80
2021/05/03 01:27:35;;;;;;;7.88;5.50;;;;;;;19.81;31.37;101466.56;5032724;28;20029;-80
2021/05/03 01:30:06;;;;;;;8.00;5.25;;;;;;;19.77;31.28;101468.41;5031459;28;20025;-80
2021/05/03 01:32:32;;;;;;;8.35;5.13;;;;;;;19.83;31.29;101463.41;5031427;28;20112;-81
2021/05/03 01:34:58;;;;;;;7.85;5.65;;;;;;;19.83;31.50;101457.88;5032556;28;20057;-79
2021/05/03 01:37:24;;;;;;;8.23;5.28;;;;;;;19.81;31.54;101455.47;5031211;28;20029;-79
2021/05/03 01:39:50;;;;;;;8.25;5.80;;;;;;;19.77;31.53;101453.75;5032672;28;20060;-79
2021/05/03 01:42:16;;;;;;;7.90;5.55;;;;;;;19.76;31.53;101450.16;5030810;28;20033;-78
2021/05/03 01:44:42;;;;;;;9.50;5.22;;;;;;;19.74;31.61;101441.41;5032477;28;20037;-79
2021/05/03 01:47:09;;;;;;;6.03;5.00;;;;;;;19.73;31.80;101439.00;5032452;28;20444;-79
2021/05/03 01:49:36;;;;;;;6.88;5.20;;;;;;;19.68;31.81;101434.53;5032491;28;20076;-79
2021/05/03 01:52:02;;;;;;;6.85;4.75;;;;;;;19.59;32.09;101428.38;5032229;28;20057;-79
2021/05/03 01:54:28;;;;;;;6.65;4.70;;;;;;;19.58;32.05;101421.22;5032483;28;20053;-79
2021/05/03 01:56:53;;;;;;;7.13;5.25;;;;;;;19.59;31.91;101417.28;5032448;28;20029;-79
2021/05/03 01:59:19;;;;;;;6.07;4.55;;;;;;;19.59;31.84;101408.97;5032162;28;20250;-79
2021/05/03 02:01:45;;;;;;;6.95;4.35;;;;;;;19.62;31.89;101411.00;5032063;28;20897;-79
2021/05/03 02:04:10;;;;;;;6.22;4.75;;;;;;;19.64;31.79;101403.94;5032155;28;20029;-79
2021/05/03 02:06:37;;;;;;;7.57;5.07;;;;;;;19.65;31.77;101396.44;5032112;28;20034;-79
2021/05/03 02:09:10;;;;;;;11.90;5.32;;;;;;;19.61;31.83;101390.00;5035048;28;20044;-79
2021/05/03 02:11:36;;;;;;;6.68;4.80;;;;;;;19.61;31.82;101379.72;5036181;28;20423;-80
2021/05/03 02:14:01;;;;;;;8.85;4.93;;;;;;;19.63;31.83;101376.56;5036228;28;20034;-80
2021/05/03 02:16:27;;;;;;;5.07;3.83;;;;;;;19.75;31.58;101372.91;5036114;28;20057;-80
2021/05/03 02:18:53;;;;;;;7.82;4.72;;;;;;;19.74;31.49;101365.75;5035851;28;20029;-79
2021/05/03 02:21:18;;;;;;;5.85;4.63;;;;;;;19.62;31.51;101355.56;5035903;28;20030;-79
2021/05/03 02:23:44;;;;;;;6.90;4.90;;;;;;;19.50;31.73;101356.44;5035866;28;20079;-79
2021/05/03 02:26:10;;;;;;;9.40;4.50;;;;;;;19.48;31.92;101344.09;5035737;28;20041;-79
2021/05/03 02:28:35;;;;;;;6.47;4.35;;;;;;;19.59;31.67;101339.66;5035262;28;20496;-79
2021/05/03 02:31:01;;;;;;;4.93;3.75;;;;;;;19.58;31.72;101340.81;5035783;28;20068;-79
2021/05/03 02:33:27;;;;;;;7.30;4.72;;;;;;;19.56;31.60;101329.25;5035742;28;20040;-79
2021/05/03 02:35:52;;;;;;;6.40;4.05;;;;;;;19.56;31.68;101321.72;5035758;28;20030;-79
2021/05/03 02:38:18;;;;;;;8.35;3.97;;;;;;;19.59;31.52;101314.72;5035571;28;20029;-80
2021/05/03 02:40:43;;;;;;;7.07;4.32;;;;;;;19.50;31.80;101314.06;5035647;28;20083;-79
2021/05/03 02:43:09;;;;;;;6.22;4.75;;;;;;;19.45;31.90;101304.06;5035613;28;20041;-79
2021/05/03 02:45:36;;;;;;;6.22;4.50;;;;;;;19.49;31.92;101301.34;5035707;28;20033;-79
2021/05/03 02:48:02;;;;;;;9.45;4.47;;;;;;;19.48;31.61;101295.00;5035705;28;20029;-80
2021/05/03 02:50:28;;;;;;;6.10;4.78;;;;;;;19.46;31.76;101282.69;5033965;28;20041;-79
2021/05/03 02:52:53;;;;;;;6.68;4.57;;;;;;;19.46;32.00;101283.50;5034069;28;20041;-86
2021/05/03 02:55:20;;;;;;;8.13;5.03;;;;;;;19.27;32.16;101275.94;5035560;28;20035;-79
2021/05/03 02:57:47;;;;;;;6.43;4.32;;;;;;;19.37;32.14;101269.03;5034306;28;20103;-90
2021/05/03 03:00:24;;;;;;;6.25;4.63;;;;;;;19.39;32.07;101267.50;5035121;28;20075;-79
2021/05/03 03:02:50;;;;;;;7.13;4.97;;;;;;;19.31;32.09;101251.06;5035517;28;20480;-79
2021/05/03 03:05:15;;;;;;;6.97;4.07;;;;;;;19.20;32.35;101248.06;5050821;28;20123;-79
2021/05/03 03:07:41;;;;;;;5.75;4.10;;;;;;;19.28;32.09;101243.47;5050586;28;20033;-91
2021/05/03 03:10:07;;;;;;;7.18;4.15;;;;;;;19.25;32.03;101239.44;5035295;28;20507;-79
2021/05/03 03:12:34;;;;;;;8.20;4.82;;;;;;;19.29;31.96;101236.78;5035183;28;20107;-80
2021/05/03 03:15:02;;;;;;;5.53;4.38;;;;;;;19.32;31.97;101228.53;5034906;28;20055;-79
2021/05/03 03:17:27;;;;;;;4.53;3.53;;;;;;;19.40;31.92;101224.75;5034911;28;20027;-79
2021/05/03 03:19:53;;;;;;;5.45;3.95;;;;;;;19.47;31.75;101215.00;5034512;28;20108;-79
2021/05/03 03:22:18;;;;;;;6.95;4.43;;;;;;;19.43;31.77;101216.91;5034895;28;20036;-80
2021/05/03 03:24:44;;;;;;;9.60;4.32;;;;;;;19.38;31.85;101207.69;5034824;28;20037;-80
2021/05/03 03:27:09;;;;;;;5.80;3.60;;;;;;;19.31;32.05;101210.31;5034910;28;20079;-79
2021/05/03 03:29:35;;;;;;;4.40;3.45;;;;;;;19.41;31.81;101190.34;5033758;28;20042;-79
2021/05/03 03:32:01;;;;;;;5.78;3.85;;;;;;;19.50;31.77;101194.91;5033677;28;20033;-80
2021/05/03 03:34:26;;;;;;;6.88;4.10;;;;;;;19.50;32.00;101189.34;5034725;28;20033;-79
2021/05/03 03:36:52;;;;;;;4.75;3.35;;;;;;;19.45;32.02;101181.31;5034458;28;20033;-79
2021/05/03 03:39:17;;;;;;;5.25;2.83;;;;;;;19.24;32.18;101176.91;5034278;28;20029;-79
2021/05/03 03:41:43;;;;;;;5.60;3.38;;;;;;;19.34;32.04;101183.84;5034574;28;20468;-79
2021/05/03 03:44:09;;;;;;;4.68;2.97;;;;;;;19.38;32.08;101177.22;5034546;28;20384;-79
2021/05/03 03:46:35;;;;;;;5.57;3.28;;;;;;;19.45;32.11;101165.50;5033178;28;20021;-79
2021/05/03 03:49:00;;;;;;;3.80;2.65;;;;;;;19.48;31.84;101166.72;5034384;28;20044;-79
2021/05/03 03:51:26;;;;;;;5.57;3.30;;;;;;;19.45;32.22;101157.19;5033812;28;20026;-81
2021/05/03 03:53:54;;;;;;;4.70;3.10;;;;;;;19.45;32.16;101154.41;5034564;28;20029;-79
2021/05/03 03:56:20;;;;;;;4.85;3.20;;;;;;;19.48;32.04;101155.66;5034258;28;20585;-79
2021/05/03 03:58:46;;;;;;;4.30;3.10;;;;;;;19.47;32.13;101148.50;5033985;28;20029;-78
2021/05/03 04:01:13;;;;;;;3.97;3.30;;;;;;;19.49;32.08;101138.63;5033851;28;20036;-78
2021/05/03 04:03:47;;;;;;;4.47;3.25;;;;;;;19.45;32.17;101132.25;5034208;28;20025;-79
2021/05/03 04:08:50;;;;;;;4.55;3.28;;;;;;;19.38;32.06;101116.25;5329597;22;20057;-80
2021/05/03 04:11:32;;;;;;;6.28;3.67;;;;;;;19.37;32.09;101113.84;5033923;28;20096;-80
2021/05/03 04:25:25;;;;;;;3.60;2.45;;;;;;;19.45;31.83;101087.09;5034110;28;20427;-80
2021/05/03 04:27:51;;;;;;;3.53;2.80;;;;;;;19.46;31.73;101074.84;5019031;28;20048;-79
2021/05/03 04:30:18;;;;;;;4.18;3.13;;;;;;;19.51;31.69;101074.56;5033540;28;20507;-80
2021/05/03 04:32:44;;;;;;;3.83;2.60;;;;;;;19.45;31.49;101078.78;5032648;28;20025;-80
2021/05/03 04:35:10;;;;;;;5.15;2.33;;;;;;;19.46;31.56;101072.06;5015659;28;20022;-80
2021/05/03 04:37:35;;;;;;;3.10;2.38;;;;;;;19.53;31.81;101069.44;5033489;28;20486;-79
2021/05/03 04:40:01;;;;;;;3.30;2.30;;;;;;;19.38;31.92;101065.59;5033384;28;20029;-80
2021/05/03 04:42:27;;;;;;;9.20;2.42;;;;;;;19.18;31.99;101059.22;5015750;28;20395;-79
2021/05/03 04:44:53;;;;;;;7.10;3.25;;;;;;;19.43;31.47;101054.22;5030514;28;20025;-79
2021/05/03 04:47:18;;;;;;;7.43;2.33;;;;;;;19.50;31.67;101059.91;5032786;28;20029;-81
2021/05/03 04:49:44;;;;;;;5.97;2.33;;;;;;;19.55;31.80;101050.47;5033128;28;20017;-80
2021/05/03 04:52:10;;;;;;;3.78;2.08;;;;;;;19.45;32.43;101049.09;5032705;28;20467;-80
2021/05/03 04:54:35;;;;;;;3.38;1.95;;;;;;;19.43;32.83;101043.13;5031447;28;20144;-80
2021/05/03 04:57:01;;;;;;;5.90;2.28;;;;;;;19.47;33.10;101035.69;5032221;28;20510;-80
2021/05/03 04:59:27;;;;;;;2.20;1.60;;;;;;;19.35;33.57;101031.09;5032989;28;20032;-79
2021/05/03 05:01:52;;;;;;;3.63;1.80;;;;;;;19.33;33.81;101024.31;5033010;28;20029;-81
2021/05/03 05:04:18;;;;;;;4.75;1.85;;;;;;;19.32;34.01;101014.41;5033005;28;20529;-81
2021/05/03 05:06:44;;;;;;;2.35;1.83;;;;;;;19.40;34.05;101007.81;5032946;28;20537;-80
2021/05/03 05:09:10;;;;;;;10.23;2.95;;;;;;;19.40;34.05;101003.09;5032751;28;20511;-81
2021/05/03 05:11:36;;;;;;;6.10;2.60;;;;;;;19.25;34.70;100998.44;5014799;28;20458;-84
2021/05/03 05:14:02;;;;;;;2.50;1.88;;;;;;;19.19;34.89;100994.34;5032833;28;20109;-80
2021/05/03 05:16:28;;;;;;;2.20;1.67;;;;;;;19.20;34.79;100984.91;5015069;28;20446;-80
2021/05/03 05:18:54;;;;;;;4.03;2.20;;;;;;;19.15;35.04;100981.59;5032651;28;20074;-80
2021/05/03 05:21:20;;;;;;;2.88;1.90;;;;;;;19.17;35.13;100970.97;5032772;28;20025;-80
2021/05/03 05:23:45;;;;;;;3.30;1.88;;;;;;;19.28;34.80;100961.72;5014983;28;20028;-81
2021/05/03 05:26:11;;;;;;;2.97;1.60;;;;;;;19.19;35.57;100963.06;5015028;28;20026;-80
2021/05/03 05:28:37;;;;;;;2.83;2.00;;;;;;;18.92;36.00;100956.63;5014974;28;20066;-80
2021/05/03 05:31:03;;;;;;;2.45;1.50;;;;;;;18.98;35.74;100946.88;5032813;28;20025;-80
2021/05/03 05:33:29;;;;;;;3.08;2.10;;;;;;;19.03;35.74;100933.50;5014824;28;20030;-80
2021/05/03 05:35:55;;;;;;;6.10;2.53;;;;;;;19.16;35.66;100919.50;5032306;28;20079;-80
2021/05/03 05:38:20;;;;;;;6.45;3.10;;;;;;;19.12;35.83;100916.69;5014916;28;20108;-80
2021/05/03 05:40:46;;;;;;;6.10;2.30;;;;;;;19.16;35.94;100909.22;5032462;28;20026;-79
2021/05/03 05:43:13;;;;;;;5.97;2.10;;;;;;;19.06;36.30;100893.22;5035566;28;20021;-80
2021/05/03 05:45:38;;;;;;;4.15;2.17;;;;;;;18.73;37.35;100888.19;5037781;28;20162;-79
2021/05/03 05:48:05;;;;;;;3.78;2.05;;;;;;;19.00;36.35;100878.88;5039236;28;20442;-81
2021/05/03 05:50:30;;;;;;;3.17;1.92;;;;;;;19.01;36.63;100865.81;5021225;28;20025;-80
2021/05/03 05:52:56;;;;;;;3.45;1.80;;;;;;;18.96;36.90;100863.34;5039114;28;20058;-80
2021/05/03 05:55:22;;;;;;;3.63;2.10;;;;;;;18.91;37.08;100855.34;5038907;28;20032;-80
2021/05/03 05:57:48;;;;;;;2.67;1.70;;;;;;;18.98;36.73;100842.44;5020937;28;20386;-80
2021/05/03 06:00:14;;;;;;;3.40;2.05;;;;;;;18.88;36.93;100837.47;5038546;28;20036;-79
2021/05/03 06:02:40;;;;;;;5.00;2.00;;;;;;;18.82;37.23;100828.69;5020397;28;20030;-80
2021/05/03 06:05:06;;;;;;;3.60;2.00;;;;;;;18.92;36.94;100820.94;5039096;28;20021;-79
2021/05/03 06:07:32;;;;;;;3.42;2.13;;;;;;;18.82;37.41;100812.09;5038775;28;20026;-80
2021/05/03 06:09:58;;;;;;;3.38;1.92;;;;;;;18.79;37.43;100809.25;5038708;28;20449;-80
2021/05/03 06:12:23;;;;;;;3.38;2.10;;;;;;;18.80;37.71;100810.84;5038705;28;20574;-80
2021/05/03 06:14:49;;;;;;;5.28;2.00;;;;;;;18.75;37.74;100800.09;5021125;28;20486;-79
2021/05/03 06:17:18;;;;;;;2.72;1.90;;;;;;;18.90;37.38;100790.06;5038826;28;20025;-80
2021/05/03 06:19:44;;;;;;;9.17;2.60;;;;;;;18.83;37.51;100772.16;5039081;28;20025;-80
2021/05/03 06:22:10;;;;;;;12.07;3.65;;;;;;;18.56;38.41;100767.66;5038369;28;20041;-79
2021/05/03 06:24:35;;;;;;;6.47;2.00;;;;;;;18.48;38.78;100761.19;5038967;28;20030;-78
2021/05/03 06:27:01;;;;;;;4.57;2.00;;;;;;;18.42;38.85;100750.78;5038626;28;20116;-79
2021/05/03 06:29:27;;;;;;;5.22;2.13;;;;;;;18.30;38.98;100735.97;5038775;28;20033;-79
2021/05/03 06:31:54;;;;;;;3.47;1.60;;;;;;;18.46;38.77;100727.56;5038732;28;20029;-85
2021/05/03 06:34:19;;;;;;;4.13;1.52;;;;;;;18.51;38.70;100718.16;5038926;28;20025;-80
2021/05/03 06:36:45;;;;;;;4.15;2.05;;;;;;;18.19;39.16;100707.28;5038560;28;20036;-79
2021/05/03 06:39:10;;;;;;;3.47;1.70;;;;;;;18.26;39.40;100692.78;5037398;28;20037;-80
2021/05/03 06:41:36;;;;;;;2.70;1.50;;;;;;;18.03;39.96;100679.72;5038707;28;20055;-80
2021/05/03 06:44:02;;;;;;;5.70;1.85;;;;;;;18.37;38.99;100663.38;5038393;28;20480;-79
2021/05/03 06:46:28;;;;;;;4.60;2.45;;;;;;;18.37;39.53;100657.84;5020696;28;20441;-78
2021/05/03 06:48:53;;;;;;;13.40;3.20;;;;;;;17.87;40.58;100659.66;5038787;28;20029;-80
2021/05/03 06:51:19;;;;;;;4.90;2.00;;;;;;;18.04;40.31;100647.34;5038665;28;20021;-79
2021/05/03 06:53:44;;;;;;;6.05;2.17;;;;;;;18.01;40.36;100646.09;5020795;28;20025;-79
2021/05/03 06:56:10;;;;;;;4.07;2.13;;;;;;;18.09;40.25;100633.22;5023846;28;20025;-79
2021/05/03 06:58:35;;;;;;;5.90;2.40;;;;;;;18.21;40.05;100622.00;5034104;28;20120;-79
2021/05/03 07:01:02;;;;;;;5.90;1.80;;;;;;;18.21;40.24;100613.72;5017398;28;20042;-86
2021/05/03 07:03:28;;;;;;;7.20;1.88;;;;;;;18.39;39.94;100608.47;5035393;28;20029;-80
2021/05/03 07:05:53;;;;;;;7.93;2.20;;;;;;;18.21;40.45;100588.81;5017157;28;20045;-88
2021/05/03 07:08:24;;;;;;;6.10;1.88;;;;;;;18.26;40.22;100596.00;5034210;28;20100;-81
2021/05/03 07:10:49;;;;;;;2.92;1.60;;;;;;;18.03;40.87;100574.66;5016124;28;20057;-80
2021/05/03 07:13:15;;;;;;;3.47;1.88;;;;;;;18.11;40.85;100561.75;5040889;28;20080;-85
2021/05/03 07:15:41;;;;;;;3.17;1.73;;;;;;;17.95;41.05;100547.25;5011198;28;20060;-85
2021/05/03 07:18:07;;;;;;;5.18;2.20;;;;;;;17.91;41.14;100532.56;5032254;28;20155;-86
2021/05/03 07:20:32;;;;;;;4.72;2.00;;;;;;;17.93;41.26;100510.91;5006610;28;20116;-84
2021/05/03 07:22:58;;;;;;;4.45;1.88;;;;;;;18.06;40.78;100504.03;5027392;28;20483;-89
2021/05/03 07:25:24;;;;;;;5.10;1.80;;;;;;;17.72;41.49;100492.75;5026474;28;20024;-85
2021/05/03 07:27:49;;;;;;;2.75;1.80;;;;;;;17.73;41.54;100474.22;5012548;28;20361;-84
2021/05/03 07:30:16;;;;;;;6.20;2.30;;;;;;;18.17;40.81;100455.22;5007008;28;20052;-87
2021/05/03 07:32:41;;;;;;;3.42;1.80;;;;;;;18.23;40.51;100442.66;5002612;28;20391;-83
2021/05/03 07:35:10;;;;;;;2.92;1.95;;;;;;;18.29;40.59;100435.66;5042917;28;20029;-83
2021/05/03 07:37:36;;;;;;;4.82;1.83;;;;;;;18.17;41.16;100421.22;5024920;28;20022;-84
2021/05/03 07:40:04;;;;;;;3.78;1.65;;;;;;;17.95;41.69;100412.59;5036388;28;20035;-90
2021/05/03 07:42:30;;;;;;;7.63;3.92;;;;;;;17.94;41.92;100394.44;5014667;28;20037;-89
2021/05/03 07:44:57;;;;;;;3.50;2.20;;;;;;;17.97;42.12;100379.06;5039778;28;20029;-84
2021/05/03 07:47:24;;;;;;;5.80;3.50;;;;;;;18.15;41.31;100369.06;4999692;28;20029;-82
2021/05/03 07:49:50;;;;;;;4.30;2.17;;;;;;;18.28;41.29;100356.59;5028713;28;20180;-84
2021/05/03 07:52:15;;;;;;;3.10;1.70;;;;;;;17.90;42.16;100349.34;5012528;28;20478;-83
2021/05/03 07:54:41;;;;;;;6.85;1.70;;;;;;;18.01;41.93;100335.69;5009794;28;20034;-83
2021/05/03 07:57:06;;;;;;;2.30;1.38;;;;;;;17.90;42.28;100318.94;5023606;28;20053;-84
2021/05/03 07:59:32;;;;;;;2.90;1.23;;;;;;;18.01;41.65;100311.59;5005175;28;20033;-88
2021/05/03 08:01:57;;;;;;;5.30;2.05;;;;;;;17.84;42.61;100286.50;5022179;28;20034;-84
2021/05/03 08:04:23;;;;;;;3.90;1.10;;;;;;;17.89;42.29;100283.38;5010037;28;20043;-82
2021/05/03 08:06:52;;;;;;;5.72;1.67;;;;;;;18.12;41.91;100270.28;5035430;28;20467;-82
2021/05/03 08:09:17;;;;;;;3.92;1.60;;;;;;;17.91;42.44;100256.97;5044428;28;20470;-83
2021/05/03 08:11:45;;;;;;;3.63;1.75;;;;;;;17.96;42.44;100236.50;5021886;28;20161;-80
2021/05/03 08:14:15;;;;;;;2.35;1.27;;;;;;;17.80;42.90;100224.84;5018827;28;20029;-82
2021/05/03 08:16:41;;;;;;;3.72;1.70;;;;;;;18.14;42.07;100214.63;5042352;28;20030;-83
2021/05/03 08:19:07;;;;;;;3.72;1.63;;;;;;;17.80;42.88;100178.66;5020422;28;20603;-80
2021/05/03 08:21:32;;;;;;;6.32;2.15;;;;;;;17.96;42.96;100170.16;5039976;28;20017;-79
2021/05/03 08:23:58;;;;;;;5.32;1.70;;;;;;;17.97;42.74;100157.94;5020218;28;20104;-88
2021/05/03 08:26:24;;;;;;;6.00;1.75;;;;;;;18.02;42.63;100127.97;5039617;28;20064;-87
2021/05/03 08:28:50;;;;;;;2.95;1.17;;;;;;;17.71;43.32;100129.19;5021347;28;20104;-83
2021/05/03 08:31:16;;;;;;;6.18;1.50;;;;;;;17.96;43.16;100112.91;5037725;28;20106;-82
2021/05/03 08:33:42;;;;;;;3.75;1.60;;;;;;;17.76;43.49;100103.22;5040168;28;20680;-81
2021/05/03 08:36:08;;;;;;;4.93;2.35;;;;;;;17.97;42.67;100097.13;5041138;28;20040;-82
2021/05/03 08:38:33;;;;;;;5.47;1.42;;;;;;;17.72;43.91;100078.28;5021557;28;20037;-86
2021/05/03 08:41:02;;;;;;;3.75;1.10;;;;;;;17.70;43.81;100054.97;5017231;28;20026;-84
2021/05/03 08:43:29;;;;;;;4.72;1.60;;;;;;;17.91;43.31;100049.69;5022580;28;20029;-81
2021/05/03 08:45:55;;;;;;;2.83;1.65;;;;;;;17.74;43.72;100040.03;5024560;28;20024;-83
2021/05/03 08:48:42;;;;;;;2.05;1.10;;;;;;;17.24;44.64;100026.78;5039578;28;20051;-84
2021/05/03 08:51:27;;;;;;;2.35;1.30;;;;;;;17.84;43.42;100007.38;5025244;28;20055;-80
2021/05/03 08:53:59;;;;;;;3.60;1.20;;;;;;;17.73;43.65;99991.47;5025212;28;20059;-77
2021/05/03 08:56:25;;;;;;;2.53;1.42;;;;;;;17.89;43.42;99973.84;5037016;28;20033;-81
2021/05/03 08:58:50;;;;;;;7.90;1.67;;;;;;;18.02;43.08;99964.91;5016677;28;20098;-80
2021/05/03 09:01:17;;;;;;;3.47;1.80;;;;;;;17.65;44.38;99948.34;5017954;28;20025;-79
2021/05/03 09:03:47;;;;;;;2.88;1.27;;;;;;;17.84;43.82;99941.84;5039641;28;20122;-82
2021/05/03 09:06:13;;;;;;;3.20;1.38;;;;;;;18.06;43.18;99920.72;5016555;28;20040;-84
2021/05/03 09:08:38;;;;;;;2.92;1.33;;;;;;;18.12;43.20;99907.31;5037431;28;20033;-76
2021/05/03 09:11:04;;;;;;;4.45;1.60;;;;;;;18.11;43.30;99898.22;5016262;28;20120;-78
2021/05/03 09:13:36;;;;;;;2.70;1.27;;;;;;;18.23;43.28;99888.84;5040250;28;20040;-76
2021/05/03 09:16:31;;;;;;;2.53;1.33;;;;;;;18.09;43.66;99884.00;5021489;28;20602;-77
2021/05/03 09:18:58;;;;;;;2.75;1.20;;;;;;;18.19;43.31;99866.69;4995786;28;20782;-76
2021/05/03 09:21:31;;;;;;;4.30;1.90;;;;;;;18.16;43.82;99856.41;5041259;28;20048;-76
2021/05/03 09:24:06;;;;;;;2.58;1.10;;;;;;;18.28;43.23;99836.72;5036221;28;20041;-79
2021/05/03 09:26:48;;;;;;;2.80;1.13;;;;;;;18.41;43.19;99828.09;5019909;28;20740;-78
2021/05/03 09:29:37;;;;;;;2.95;1.60;;;;;;;17.95;44.43;99803.75;5032179;28;20047;-82
2021/05/03 09:32:13;;;;;;;4.05;1.27;;;;;;;18.12;44.39;99799.50;5031258;28;20598;-78
2021/05/03 09:34:45;;;;;;;4.65;1.50;;;;;;;18.23;44.32;99770.72;5032808;28;20034;-79
2021/05/03 09:37:49;;;;;;;6.15;1.55;;;;;;;18.19;44.73;99772.69;5033767;28;20017;-72
2021/05/03 09:40:17;;;;;;;5.97;1.80;;;;;;;18.41;44.62;99759.75;4910697;29;20918;-76
2021/05/03 09:42:50;;;;;;;2.60;1.50;;;;;;;18.16;45.42;99739.50;4909423;29;20418;-76
2021/05/03 09:45:18;;;;;;;9.98;1.98;;;;;;;18.64;44.63;99730.97;4985659;28;20116;-76
2021/05/03 09:47:45;;;;;;;4.82;1.80;;;;;;;18.60;44.98;99724.66;5043431;28;20052;-78
2021/05/03 09:50:14;;;;;;;6.32;1.80;;;;;;;19.15;43.70;99719.59;5041994;28;20064;-68
2021/05/03 09:53:04;;;;;;;3.95;1.70;;;;;;;19.24;43.87;99699.81;5029483;28;20137;-71
2021/05/03 09:55:44;;;;;;;5.88;1.90;;;;;;;19.27;43.67;99685.97;5014924;28;20033;-69
2021/05/03 09:58:21;;;;;;;5.55;1.67;;;;;;;18.75;45.16;99670.94;5014786;28;20139;-72
2021/05/03 10:00:55;;;;;;;2.95;1.63;;;;;;;18.97;45.25;99666.22;4980601;28;20605;-69
2021/05/03 10:03:43;;;;;;;5.75;2.03;;;;;;;18.84;45.12;99646.44;4997800;28;20676;-71
2021/05/03 10:06:11;;;;;;;4.15;1.60;;;;;;;18.84;45.25;99646.44;5037376;28;20071;-71
2021/05/03 10:08:37;;;;;;;5.40;1.70;;;;;;;19.10;44.62;99636.91;5031507;28;20064;-72
2021/05/03 10:11:09;;;;;;;4.93;1.50;;;;;;;19.09;44.24;99621.50;5031088;28;20034;-74
2021/05/03 10:13:37;;;;;;;8.20;3.47;;;;;;;18.96;44.99;99610.03;5032721;28;20038;-72
2021/05/03 10:16:04;;;;;;;6.38;1.98;;;;;;;19.31;44.27;99592.59;5034918;28;20021;-70
2021/05/03 10:18:31;;;;;;;5.03;1.65;;;;;;;19.13;44.58;99566.94;5037882;28;20072;-77
2021/05/03 10:20:57;;;;;;;4.07;1.33;;;;;;;18.92;45.51;99551.13;5013438;28;20117;-75
2021/05/03 10:23:25;;;;;;;8.98;1.50;;;;;;;19.37;44.53;99568.03;5029541;28;20092;-75
2021/05/03 10:26:09;;;;;;;1.95;1.05;;;;;;;19.47;44.38;99549.81;5027752;28;20025;-81
2021/05/03 10:29:03;;;;;;;4.07;1.48;;;;;;;19.67;44.22;99539.84;5018272;28;20037;-71
2021/05/03 10:31:57;;;;;;;4.07;1.05;;;;;;;19.18;45.52;99516.66;5025987;28;20084;-75
2021/05/03 10:34:35;;;;;;;6.63;1.92;;;;;;;19.82;44.25;99491.47;5019467;28;20052;-70
2021/05/03 10:37:01;;;;;;;6.05;1.45;;;;;;;19.84;44.20;99486.31;4996783;28;20494;-73
2021/05/03 10:39:29;;;;;;;4.30;1.33;;;;;;;19.46;45.51;99476.19;5014694;28;20052;-72
2021/05/03 10:42:07;;;;;;;7.10;1.75;;;;;;;19.82;44.72;99472.06;4996907;28;20372;-73
2021/05/03 10:44:34;;;;;;;10.00;1.42;;;;;;;19.70;45.25;99439.28;5014969;28;20037;-75
2021/05/03 10:47:06;;;;;;;3.15;0.88;;;;;;;20.06;44.22;99441.78;5015406;28;20033;-74
2021/05/03 10:49:41;;;;;;;7.00;2.25;;;;;;;20.21;43.96;99424.63;5036941;28;20408;-73
2021/05/03 10:52:11;;;;;;;2.28;0.95;;;;;;;19.66;45.22;99419.91;5017813;28;20136;-73
2021/05/03 10:54:50;;;;;;;2.70;1.13;;;;;;;20.26;44.29;99417.88;5015567;28;20419;-75
2021/05/03 10:57:15;;;;;;;5.03;1.55;;;;;;;20.23;44.41;99391.72;5020998;28;20061;-77
2021/05/03 10:59:43;;;;;;;2.13;1.05;;;;;;;20.45;43.96;99392.31;5015238;28;20180;-78
2021/05/03 11:02:11;;;;;;;3.00;0.95;;;;;;;19.81;46.13;99376.25;4998609;28;20026;-75
2021/05/03 11:04:39;;;;;;;1.00;0.73;;;;;;;20.39;44.63;99363.41;5010666;28;20550;-77
2021/05/03 11:07:10;;;;;;;1.80;0.95;;;;;;;20.54;44.34;99335.56;5015534;28;20037;-72
2021/05/03 11:09:39;;;;;;;1.70;1.38;;;;;;;20.52;44.53;99338.75;5016232;28;20128;-73
2021/05/03 11:12:12;;;;;;;3.55;1.00;;;;;;;20.53;44.63;99323.66;5018714;28;20073;-75
2021/05/03 11:14:39;;;;;;;7.75;4.03;;;;;;;21.06;43.64;99314.66;5000106;28;20025;-72
2021/05/03 11:17:12;;;;;;;4.35;3.53;;;;;;;20.99;43.71;99309.19;5027570;28;20026;-74
2021/05/03 11:20:12;;;;;;;11.40;8.75;;;;;;;20.93;44.14;99280.34;5024795;28;20065;-81
2021/05/03 11:22:46;;;;;;;10.73;8.27;;;;;;;21.57;43.05;99290.50;5027775;28;20025;-78
2021/05/03 11:25:29;;;;;;;2.55;1.63;;;;;;;20.93;44.49;99272.03;5022009;28;20025;-80
2021/05/03 11:28:05;;;;;;;2.92;1.77;;;;;;;21.43;43.42;99276.84;5027590;28;20029;-75
2021/05/03 11:30:39;;;;;;;3.63;2.63;;;;;;;21.78;42.82;99258.00;5008596;28;20069;-73
2021/05/03 11:33:12;;;;;;;9.40;8.50;;;;;;;21.74;43.17;99251.69;5031595;28;20473;-74
2021/05/03 11:35:44;;;;;;;7.45;4.55;;;;;;;21.75;43.61;99225.47;5033903;28;20498;-73
2021/05/03 11:38:35;;;;;;;3.22;1.92;;;;;;;21.75;43.43;99220.69;5033619;28;20114;-73
2021/05/03 11:46:25;;;;;;;19.38;17.88;;;;;;;22.41;42.74;99177.28;5033301;28;20029;-72
2021/05/03 11:48:56;;;;;;;151.85;137.48;;;;;;;22.75;42.67;99171.38;5033831;28;20364;-77
2021/05/03 11:51:22;;;;;;;71.35;65.07;;;;;;;22.95;42.35;99172.09;5033594;28;20022;-73